Latest Weather Observations for Viewbank

IDV60801

Issued at 8:02 am EST Saturday 24 August 2019 (issued every 10 minutes, with the page automatically refreshed every 10 minutes)

About weather observations | Map of weather stations | Latest weather observations for VIC | Other Formats
Station Details ID: 086068 Name: VIEWBANK Lat: -37.74 Lon: 145.10 Height: 66.1 m
Data from the previous 72 hours. | See also: Recent months at Viewbank
Date/Time
EST
Temp
°C
App
Temp
°C
Dew
Point
°C
Rel
Hum
%
Delta-T
°C
Wind Press
QNH
hPa
Press
MSL
hPa
Rain since
9am
mm
Dir  Spd
km/h
Gust
km/h
Spd
kts
Gust
kts
24/08:00am 10.5 6.3 1.9 55 3.6 NNE 13 24 7 13 1017.2 1017.3 0.0
24/07:30am 9.6 6.2 2.0 59 3.2 NNE 9 20 5 11 1017.0 1017.1 0.0
24/07:00am 8.9 5.8 1.6 60 3.0 NE 7 15 4 8 1017.0 1017.1 0.0
24/06:30am 8.6 5.6 1.7 62 2.9 NE 7 13 4 7 1017.1 1017.2 0.0
24/06:00am 8.6 5.2 1.7 62 2.8 NE 9 15 5 8 1017.3 1017.4 0.0
24/05:30am 8.5 4.3 1.6 62 2.8 ENE 13 15 7 8 1017.5 1017.6 0.0
24/05:00am 8.7 5.8 1.6 61 2.9 NE 6 7 3 4 1017.6 1017.7 0.0
24/04:30am 9.3 6.4 1.7 59 3.2 NE 6 9 3 5 1017.2 1017.3 0.0
24/04:00am 9.5 5.8 2.1 60 3.1 NE 11 22 6 12 1016.7 1016.8 0.0
24/03:30am 9.1 6.1 2.2 62 2.9 NE 7 15 4 8 1017.2 1017.3 0.0
24/03:00am 8.7 5.8 2.5 65 2.6 NNE 7 17 4 9 1017.7 1017.8 0.0
24/02:30am 8.8 6.1 2.4 64 2.7 NE 6 9 3 5 1018.3 1018.4 0.0
24/02:00am 8.7 6.3 2.3 64 2.7 NE 4 7 2 4 1018.5 1018.6 0.0
24/01:30am 8.8 6.1 2.6 65 2.6 NE 6 9 3 5 1018.7 1018.8 0.0
24/01:00am 8.3 5.6 2.8 68 2.3 ENE 6 9 3 5 1018.9 1019.0 0.0
24/12:30am 8.8 5.6 3.0 67 2.5 NE 9 19 5 10 1019.0 1019.1 0.0
24/12:00am 8.9 7.1 3.3 68 2.4 NE 2 13 1 7 1019.4 1019.5 0.0
 
Date/Time
EST
Temp
°C
App
Temp
°C
Dew
Point
°C
Rel
Hum
%
Delta-T
°C
Wind Press
QNH
hPa
Press
MSL
hPa
Rain since
9am
mm
Dir  Spd
km/h
Gust
km/h
Spd
kts
Gust
kts
23/11:30pm 8.8 6.3 3.6 70 2.3 ENE 6 9 3 5 1019.3 1019.4 0.0
23/11:00pm 8.4 5.3 3.8 73 2.0 ENE 9 15 5 8 1019.3 1019.4 0.0
23/10:30pm 8.6 6.9 3.8 72 2.1 NE 2 7 1 4 1019.9 1020.0 0.0
23/10:00pm 9.1 6.5 4.1 71 2.2 NNE 7 13 4 7 1020.1 1020.2 0.0
23/09:30pm 8.9 6.5 4.1 72 2.1 NNE 6 9 3 5 1020.7 1020.8 0.0
23/09:00pm 9.7 7.1 4.1 68 2.5 NNW 7 9 4 5 1021.0 1021.1 0.0
23/08:30pm 9.7 7.6 4.1 68 2.5 NNW 4 6 2 3 1021.1 1021.2 0.0
23/08:00pm 10.1 7.7 4.5 68 2.5 NE 6 11 3 6 1020.9 1021.0 0.0
23/07:30pm 10.3 7.8 4.5 67 2.6 NE 7 13 4 7 1020.7 1020.8 0.0
23/07:00pm 10.6 7.6 4.1 64 2.9 E 9 13 5 7 1020.8 1020.9 0.0
23/06:30pm 11.9 7.0 4.2 59 3.5 NNE 19 32 10 17 1020.6 1020.7 0.0
23/06:00pm 12.1 7.5 3.9 57 3.7 NNE 17 28 9 15 1020.7 1020.8 0.0
23/05:30pm 12.8 8.1 2.9 51 4.4 N 17 32 9 17 1020.6 1020.7 0.0
23/05:00pm 13.4 8.0 2.3 47 4.9 NNW 20 33 11 18 1020.4 1020.5 0.0
23/04:30pm 14.3 8.9 2.2 44 5.3 NNW 20 37 11 20 1020.4 1020.5 0.0
23/04:00pm 14.7 10.1 3.5 47 5.1 N 17 32 9 17 1020.4 1020.5 0.0
23/03:30pm 14.9 10.6 3.4 46 5.2 N 15 26 8 14 1020.3 1020.4 0.0
23/03:00pm 14.7 10.1 3.5 47 5.1 NNE 17 28 9 15 1020.5 1020.6 0.0
23/02:30pm 14.3 8.9 2.5 45 5.2 N 20 35 11 19 1021.1 1021.2 0.0
23/02:00pm 14.1 8.5 3.3 48 4.9 N 22 35 12 19 1021.6 1021.7 0.0
23/01:30pm 14.2 9.1 3.9 50 4.7 NNW 20 33 11 18 1021.9 1022.0 0.0
23/01:00pm 13.8 8.5 3.0 48 4.8 NNW 20 35 11 19 1022.4 1022.5 0.0
23/12:30pm 13.5 8.5 3.6 51 4.5 NNW 19 28 10 15 1023.2 1023.3 0.0
23/12:00pm 13.7 10.2 5.3 57 3.9 NNW 13 24 7 13 1023.6 1023.7 0.0
23/11:30am 12.5 8.8 4.5 58 3.7 N 13 20 7 11 1024.2 1024.3 0.0
23/11:00am 11.2 7.3 3.5 59 3.4 NNE 13 20 7 11 1024.9 1025.0 0.0
23/10:30am 10.8 8.0 5.1 68 2.6 NNW 9 17 5 9 1025.3 1025.4 0.0
23/10:00am 9.2 6.9 3.0 65 2.6 ENE 4 17 2 9 1025.6 1025.7 0.0
23/09:30am 7.3 5.2 5.6 89 0.8 E 6 7 3 4 1025.8 1025.9 0.0
23/09:00am 5.4 3.0 5.3 99 0.0 SE 7 9 4 5 1025.9 1026.0 0.0
23/08:30am 3.9 1.2 3.9 100 0.0 SE 7 9 4 5 1026.0 1026.1 0.0
23/08:00am 3.1 0.9 3.1 100 0.0 SE 4 7 2 4 1026.0 1026.1 0.0
23/07:30am 1.7 -1.2 1.7 100 0.0 E 6 7 3 4 1025.9 1026.0 0.0
23/07:00am 1.6 -0.1 1.6 100 0.0 CALM 0 0 0 0 1025.7 1025.8 0.0
23/06:30am 2.0 0.3 2.0 100 0.0 CALM 0 0 0 0 1025.6 1025.7 0.0
23/06:00am 2.5 0.9 2.5 100 0.0 CALM 0 6 0 3 1025.5 1025.6 0.0
23/05:30am 2.6 0.7 2.6 100 0.0 ENE 2 6 1 3 1025.3 1025.4 0.0
23/05:00am 3.0 1.5 3.0 100 0.0 CALM 0 0 0 0 1025.3 1025.4 0.0
23/04:30am 3.3 1.9 3.3 100 0.0 CALM 0 6 0 3 1025.2 1025.3 0.0
23/04:00am 3.7 2.3 3.7 100 0.0 CALM 0 0 0 0 1025.3 1025.4 0.0
23/03:30am 4.0 2.7 4.0 100 0.0 CALM 0 0 0 0 1025.4 1025.5 0.0
23/03:00am 4.4 3.2 4.4 100 0.0 CALM 0 0 0 0 1025.5 1025.6 0.0
23/02:30am 5.1 3.2 5.0 99 0.0 NE 4 7 2 4 1025.8 1025.9 0.0
23/02:00am 5.7 3.9 5.6 99 0.0 NE 4 7 2 4 1026.1 1026.2 0.0
23/01:30am 5.6 4.6 5.5 99 0.0 CALM 0 0 0 0 1026.3 1026.4 0.0
23/01:00am 5.5 4.5 5.4 99 0.0 CALM 0 0 0 0 1026.4 1026.5 0.0
23/12:30am 5.8 4.8 5.7 99 0.0 CALM 0 0 0 0 1026.4 1026.5 0.0
23/12:00am 6.1 5.1 5.8 98 0.1 CALM 0 0 0 0 1026.6 1026.7 0.0
 
Date/Time
EST
Temp
°C
App
Temp
°C
Dew
Point
°C
Rel
Hum
%
Delta-T
°C
Wind Press
QNH
hPa
Press
MSL
hPa
Rain since
9am
mm
Dir  Spd
km/h
Gust
km/h
Spd
kts
Gust
kts
22/11:30pm 6.5 5.4 5.3 92 0.5 CALM 0 0 0 0 1026.5 1026.6 0.0
22/11:00pm 7.0 5.2 5.5 90 0.7 NNE 4 7 2 4 1026.6 1026.7 0.0
22/10:30pm 6.9 5.2 5.7 92 0.5 NNE 4 7 2 4 1026.7 1026.8 0.0
22/10:00pm 6.8 5.7 5.3 90 0.7 CALM 0 0 0 0 1026.8 1026.9 0.0
22/09:30pm 7.1 6.1 5.4 89 0.8 CALM 0 0 0 0 1026.7 1026.8 0.0
22/09:00pm 7.9 6.7 4.7 80 1.4 CALM 0 0 0 0 1026.8 1026.9 0.0
22/08:30pm 7.9 6.3 4.3 78 1.6 SSW 2 6 1 3 1026.7 1026.8 0.0
22/08:00pm 8.5 6.1 4.1 74 1.9 SW 6 9 3 5 1026.4 1026.5 0.0
22/07:30pm 8.6 6.5 4.0 73 2.0 SW 4 7 2 4 1026.3 1026.4 0.0
22/07:00pm 8.9 6.5 4.1 72 2.1 S 6 15 3 8 1025.9 1026.0 0.0
22/06:30pm 9.5 6.9 4.1 69 2.4 S 7 13 4 7 1025.9 1026.0 0.0
22/06:00pm 9.6 5.8 3.8 67 2.5 SSW 13 22 7 12 1025.5 1025.6 0.0
22/05:30pm 10.2 5.1 3.3 62 3.0 SSW 19 30 10 16 1025.3 1025.4 0.0
22/05:00pm 10.7 5.5 3.5 61 3.1 SSW 20 32 11 17 1025.1 1025.2 0.0
22/04:30pm 11.7 7.5 3.7 58 3.6 SSW 15 26 8 14 1024.8 1024.9 0.0
22/04:00pm 11.2 6.4 4.4 63 3.0 SSW 19 30 10 16 1024.6 1024.7 0.0
22/03:30pm 10.9 5.5 4.6 65 2.8 SSW 22 33 12 18 1024.2 1024.3 0.0
22/03:00pm 12.0 6.5 4.0 58 3.6 SSW 22 39 12 21 1024.1 1024.2 0.0
22/02:30pm 11.5 6.0 3.8 59 3.4 SSW 22 33 12 18 1024.0 1024.1 0.0
22/02:00pm 11.2 5.4 4.2 62 3.1 SSW 24 43 13 23 1024.0 1024.1 0.0
22/01:30pm 12.0 5.7 3.5 56 3.8 SSW 26 41 14 22 1023.7 1023.8 0.0
22/01:00pm 11.3 4.7 4.1 61 3.2 SSW 28 54 15 29 1023.7 1023.8 0.0
22/12:59pm 11.2 4.6 4.0 61 3.2 SSW 28 54 15 29 1023.7 1023.8 0.0
22/12:30pm 11.5 6.3 5.4 66 2.8 S 22 41 12 22 1023.9 1024.0 0.0
22/12:08pm 11.8 5.3 4.8 62 3.2 SSW 28 50 15 27 1023.7 1023.8 0.0
22/12:00pm 11.6 5.4 4.3 61 3.3 SSW 26 44 14 24 1023.9 1024.0 0.0
22/11:46am 11.4 5.0 5.1 65 2.9 SSW 28 50 15 27 1023.8 1023.9 0.0
22/11:30am 11.6 5.5 5.0 64 3.0 SSW 26 41 14 22 1023.7 1023.8 0.0
22/11:00am 11.8 4.8 4.3 60 3.4 SSW 30 50 16 27 1023.5 1023.6 0.0
22/10:51am 11.6 4.8 3.1 56 3.7 SSW 28 48 15 26 1023.4 1023.5 0.0
22/10:30am 11.0 6.1 4.9 66 2.8 SW 20 39 11 21 1023.3 1023.4 0.0
22/10:00am 10.9 5.0 3.9 62 3.1 SW 24 43 13 23 1022.6 1022.7 0.0
22/09:30am 11.0 5.8 3.8 61 3.2 SW 20 35 11 19 1022.4 1022.5 0.0
22/09:00am 10.3 5.1 3.8 64 2.9 SW 20 35 11 19 1022.3 1022.4 3.0
22/08:30am 10.5 5.4 4.0 64 2.9 SW 20 37 11 20 1021.9 1022.0 3.0
22/08:00am 10.1 5.3 4.7 69 2.4 SSW 19 32 10 17 1021.7 1021.8 3.0
22/07:30am 9.5 6.4 7.1 85 1.1 SW 13 20 7 11 1021.2 1021.3 3.0
22/07:00am 8.8 5.9 8.0 95 0.4 SW 13 20 7 11 1020.7 1020.8 3.0
22/06:30am 8.7 4.8 8.6 99 0.0 SW 19 28 10 15 1020.2 1020.3 3.0
22/06:00am 9.3 6.3 9.2 99 0.0 WSW 15 20 8 11 1019.9 1020.0 2.4
22/05:30am 9.0 5.9 8.9 99 0.0 WSW 15 24 8 13 1019.5 1019.6 2.4
22/05:00am 10.3 7.0 8.1 86 1.1 WSW 15 22 8 12 1019.2 1019.3 2.0
22/04:30am 10.3 7.4 8.1 86 1.1 WSW 13 22 7 12 1019.0 1019.1 2.0
22/04:00am 10.9 7.4 8.7 86 1.1 WSW 17 30 9 16 1018.5 1018.6 2.0
22/03:30am 11.2 8.2 9.1 87 1.0 SW 15 24 8 13 1018.3 1018.4 2.0
22/03:00am 11.4 6.8 9.7 89 0.9 WSW 24 43 13 23 1017.8 1017.9 2.0
22/02:30am 11.5 7.3 9.9 90 0.8 WSW 22 43 12 23 1017.9 1018.0 2.0
22/02:00am 11.7 7.2 10.1 90 0.8 WSW 24 41 13 22 1017.8 1017.9 2.0
22/01:30am 11.6 6.1 10.5 93 0.6 WSW 30 52 16 28 1017.6 1017.7 2.0
22/01:20am 11.4 6.5 11.2 99 0.1 WSW 28 50 15 27 1017.5 1017.6 2.0
22/01:00am 11.0 7.7 11.0 100 0.0 WSW 19 35 10 19 1017.8 1017.9 2.0
22/12:30am 11.0 6.4 11.0 100 0.0 WSW 26 52 14 28 1017.4 1017.5 1.0
22/12:01am 12.5 7.0 9.3 81 1.6 W 28 52 15 28 1016.9 1017.0 0.0
22/12:00am 12.6 7.5 9.2 80 1.7 W 26 52 14 28 1016.7 1016.8 0.0
 
Date/Time
EST
Temp
°C
App
Temp
°C
Dew
Point
°C
Rel
Hum
%
Delta-T
°C
Wind Press
QNH
hPa
Press
MSL
hPa
Rain since
9am
mm
Dir  Spd
km/h
Gust
km/h
Spd
kts
Gust
kts
21/11:38pm 12.8 7.1 8.5 75 2.1 W 28 46 15 25 1016.8 1016.9 0.0
21/11:30pm 12.8 7.5 8.3 74 2.2 W 26 46 14 25 1016.9 1017.0 0.0
21/11:23pm 12.9 7.2 8.2 73 2.3 W 28 46 15 25 1016.8 1016.9 0.0
21/11:00pm 12.5 6.8 8.4 76 2.0 W 28 43 15 23 1016.9 1017.0 0.0
21/10:30pm 12.4 6.3 8.3 76 2.0 W 30 52 16 28 1017.2 1017.3 0.0
21/10:15pm 13.1 7.1 7.1 67 2.9 W 28 50 15 27 1017.1 1017.2 0.0
21/10:00pm 13.1 7.5 7.3 68 2.8 W 26 44 14 24 1017.4 1017.5 0.0
21/09:35pm 13.2 7.3 7.4 68 2.8 W 28 52 15 28 1017.3 1017.4 0.0
21/09:30pm 13.1 7.9 7.3 68 2.8 W 24 41 13 22 1017.6 1017.7 0.0
21/09:00pm 13.0 7.9 7.7 70 2.6 W 24 37 13 20 1017.6 1017.7 0.0
21/08:30pm 13.3 8.2 7.5 68 2.8 W 24 41 13 22 1018.0 1018.1 0.0
21/08:00pm 13.4 8.6 7.2 66 3.0 W 22 41 12 22 1018.2 1018.3 0.0
21/07:30pm 13.3 8.1 7.1 66 3.0 W 24 39 13 21 1018.0 1018.1 0.0
21/07:00pm 13.1 9.9 6.7 65 3.1 W 13 26 7 14 1018.0 1018.1 0.0
21/06:30pm 13.1 7.6 6.0 62 3.4 W 24 41 13 22 1018.4 1018.5 0.0
21/06:04pm 13.5 7.1 5.4 58 3.8 W 28 48 15 26 1018.3 1018.4 0.0
21/06:00pm 13.5 8.0 5.7 59 3.7 W 24 41 13 22 1018.1 1018.2 0.0
21/05:30pm 13.6 7.7 6.0 60 3.6 W 26 44 14 24 1018.0 1018.1 0.0
21/05:00pm 13.8 7.3 6.4 61 3.6 WSW 30 50 16 27 1018.1 1018.2 0.0
21/04:33pm 14.2 7.9 5.8 57 4.0 W 28 52 15 28 1018.1 1018.2 0.0
21/04:30pm 14.3 8.8 5.9 57 4.0 W 24 39 13 21 1018.2 1018.3 0.0
21/04:00pm 14.4 7.5 6.3 58 3.9 W 32 56 17 30 1018.3 1018.4 0.0
21/03:31pm 14.6 8.2 5.4 54 4.4 W 28 46 15 25 1018.1 1018.2 0.0
21/03:30pm 14.7 8.4 5.5 54 4.4 W 28 44 15 24 1018.2 1018.3 0.0
21/03:04pm 15.5 8.4 5.7 52 4.7 WSW 32 50 17 27 1018.1 1018.2 0.0
21/03:00pm 15.4 9.1 5.9 53 4.6 WSW 28 44 15 24 1018.2 1018.3 0.0
21/02:30pm 16.0 9.2 5.3 49 5.1 W 30 59 16 32 1017.7 1017.8 0.0
21/02:00pm 15.5 8.2 4.6 48 5.1 W 32 50 17 27 1018.3 1018.4 0.0
21/01:30pm 15.9 9.9 6.9 55 4.4 W 28 48 15 26 1018.6 1018.7 0.0
21/01:00pm 15.7 9.9 8.0 60 3.9 WSW 28 46 15 25 1019.0 1019.1 0.0
21/12:51pm 15.0 8.9 6.6 57 4.1 WSW 28 48 15 26 1019.1 1019.2 0.0
21/12:30pm 14.6 9.7 6.9 60 3.8 W 22 41 12 22 1019.4 1019.5 0.0
21/12:00pm 14.7 9.4 6.8 59 3.8 WSW 24 44 13 24 1019.5 1019.6 0.0
21/11:46am 14.7 8.6 6.8 59 3.9 WSW 28 52 15 28 1019.7 1019.8 0.0
21/11:30am 13.9 8.9 7.9 67 3.0 WSW 24 39 13 21 1019.6 1019.7 0.0
21/11:00am 14.3 10.4 9.3 72 2.6 W 20 37 11 20 1019.9 1020.0 0.0
21/10:30am 13.4 9.0 9.1 75 2.2 WSW 22 43 12 23 1019.6 1019.7 0.0
21/10:00am 12.8 9.3 10.2 84 1.3 WSW 19 35 10 19 1019.8 1019.9 0.0
21/09:30am 11.7 8.4 11.5 99 0.1 W 20 35 11 19 1020.0 1020.1 0.0
21/09:00am 11.9 8.1 11.0 94 0.5 W 22 39 12 21 1019.6 1019.7 0.8
21/08:30am 11.5 8.3 11.3 99 0.1 W 19 28 10 15 1019.7 1019.8 0.8

Other formats

Comma delimited format used in spreadsheet applications
http://www.bom.gov.au/fwo/IDV60801/IDV60801.95874.axf

JavaScript Object Notation format (JSON) in row-major order
http://www.bom.gov.au/fwo/IDV60801/IDV60801.95874.json

Data quality

Most of these data are generated automatically and are frequently updated. Quality checks on data are not normally performed. It is possible for incorrect values to appear. Refer to information at About Latest Weather Observations and please check the disclaimer before using these data.